Terminal Aerodrome Forecast
Issued by NWS

Home | Current Version | Previous Version | Text Only | Print | Product List | Glossary On
Versions: 1 2 3 4 5 6 7 8 9 10 11 12 13 14 15 16 17 18 19 20 21 22 23 24 25 26 27 28 29
000
FTUS46 KMTR 300300 AAA
TAFSFO
TAF AMD
KSFO 300304Z 3003/3106 27015G20KT P6SM BKN009
     FM300500 28010KT P6SM FEW004 OVC007
     FM301600 28005KT P6SM FEW004 BKN010
     FM301830 28010KT P6SM FEW008 SCT012
     FM302000 28017G24KT P6SM FEW015=

USA.gov is the U.S. government's official web portal to all federal, state and local government web resources and services.